sensor_id;sensor_type;location;lat;lon;timestamp;temperature;humidity
20740;DHT22;10530;49.968;19.844;2023-05-29T00:01:42;8.60;99.90
20740;DHT22;10530;49.968;19.844;2023-05-29T00:06:46;8.50;99.90
20740;DHT22;10530;49.968;19.844;2023-05-29T00:11:49;8.50;99.90
20740;DHT22;10530;49.968;19.844;2023-05-29T00:16:54;8.50;99.90
20740;DHT22;10530;49.968;19.844;2023-05-29T00:21:59;8.40;99.90
20740;DHT22;10530;49.968;19.844;2023-05-29T00:27:02;8.50;99.90
20740;DHT22;10530;49.968;19.844;2023-05-29T00:32:05;8.40;99.90
20740;DHT22;10530;49.968;19.844;2023-05-29T00:37:08;8.50;99.90
20740;DHT22;10530;49.968;19.844;2023-05-29T00:42:11;8.40;99.90
20740;DHT22;10530;49.968;19.844;2023-05-29T00:47:14;8.40;99.90
20740;DHT22;10530;49.968;19.844;2023-05-29T00:52:18;8.40;99.90
20740;DHT22;10530;49.968;19.844;2023-05-29T00:57:23;8.20;99.90
20740;DHT22;10530;49.968;19.844;2023-05-29T01:02:28;8.20;99.90
20740;DHT22;10530;49.968;19.844;2023-05-29T01:07:33;8.20;99.90
20740;DHT22;10530;49.968;19.844;2023-05-29T01:12:38;8.10;99.90
20740;DHT22;10530;49.968;19.844;2023-05-29T01:28:43;8.10;99.90
20740;DHT22;10530;49.968;19.844;2023-05-29T01:33:59;8.00;99.90
20740;DHT22;10530;49.968;19.844;2023-05-29T01:39:05;8.00;99.90
20740;DHT22;10530;49.968;19.844;2023-05-29T01:44:09;7.80;99.90
20740;DHT22;10530;49.968;19.844;2023-05-29T01:49:13;7.80;99.90
20740;DHT22;10530;49.968;19.844;2023-05-29T01:54:17;7.80;99.90
20740;DHT22;10530;49.968;19.844;2023-05-29T01:59:21;7.70;99.90
20740;DHT22;10530;49.968;19.844;2023-05-29T02:04:24;7.60;99.90
20740;DHT22;10530;49.968;19.844;2023-05-29T02:09:27;7.60;99.90
20740;DHT22;10530;49.968;19.844;2023-05-29T02:14:30;7.60;99.90
20740;DHT22;10530;49.968;19.844;2023-05-29T02:19:34;7.60;99.90
20740;DHT22;10530;49.968;19.844;2023-05-29T02:24:38;7.50;99.90
20740;DHT22;10530;49.968;19.844;2023-05-29T02:29:41;7.60;99.90
20740;DHT22;10530;49.968;19.844;2023-05-29T02:34:44;7.50;99.90
20740;DHT22;10530;49.968;19.844;2023-05-29T02:39:47;7.40;99.90
20740;DHT22;10530;49.968;19.844;2023-05-29T02:44:50;7.30;99.90
20740;DHT22;10530;49.968;19.844;2023-05-29T02:49:53;7.40;99.90
20740;DHT22;10530;49.968;19.844;2023-05-29T02:54:56;7.20;99.90
20740;DHT22;10530;49.968;19.844;2023-05-29T02:59:58;7.30;99.90
20740;DHT22;10530;49.968;19.844;2023-05-29T03:05:01;7.40;99.90
20740;DHT22;10530;49.968;19.844;2023-05-29T03:10:05;7.50;99.90
20740;DHT22;10530;49.968;19.844;2023-05-29T03:15:08;7.50;99.90
20740;DHT22;10530;49.968;19.844;2023-05-29T03:20:12;7.50;99.90
20740;DHT22;10530;49.968;19.844;2023-05-29T03:25:16;7.60;99.90
20740;DHT22;10530;49.968;19.844;2023-05-29T03:30:19;7.60;99.90
20740;DHT22;10530;49.968;19.844;2023-05-29T03:35:25;7.70;99.90
20740;DHT22;10530;49.968;19.844;2023-05-29T03:40:27;7.70;99.90
20740;DHT22;10530;49.968;19.844;2023-05-29T03:45:31;7.90;99.90
20740;DHT22;10530;49.968;19.844;2023-05-29T03:50:34;7.90;99.90
20740;DHT22;10530;49.968;19.844;2023-05-29T03:55:37;8.10;99.90
20740;DHT22;10530;49.968;19.844;2023-05-29T04:00:42;8.30;99.90
20740;DHT22;10530;49.968;19.844;2023-05-29T04:05:48;8.40;99.90
20740;DHT22;10530;49.968;19.844;2023-05-29T04:10:51;8.50;99.90
20740;DHT22;10530;49.968;19.844;2023-05-29T04:15:57;8.70;99.90
20740;DHT22;10530;49.968;19.844;2023-05-29T04:21:00;8.90;99.90
20740;DHT22;10530;49.968;19.844;2023-05-29T04:26:03;9.10;99.90
20740;DHT22;10530;49.968;19.844;2023-05-29T04:31:10;9.40;99.90
20740;DHT22;10530;49.968;19.844;2023-05-29T04:36:16;9.70;99.90
20740;DHT22;10530;49.968;19.844;2023-05-29T04:41:20;10.00;99.90
20740;DHT22;10530;49.968;19.844;2023-05-29T04:46:33;10.40;99.90
20740;DHT22;10530;49.968;19.844;2023-05-29T04:51:39;10.70;99.90
20740;DHT22;10530;49.968;19.844;2023-05-29T04:56:45;11.10;99.90
20740;DHT22;10530;49.968;19.844;2023-05-29T05:01:49;11.30;99.90
20740;DHT22;10530;49.968;19.844;2023-05-29T05:06:53;11.60;99.90
20740;DHT22;10530;49.968;19.844;2023-05-29T05:11:56;11.90;99.90
20740;DHT22;10530;49.968;19.844;2023-05-29T05:16:59;12.30;99.90
20740;DHT22;10530;49.968;19.844;2023-05-29T05:22:02;12.50;99.90
20740;DHT22;10530;49.968;19.844;2023-05-29T05:27:06;12.80;99.90
20740;DHT22;10530;49.968;19.844;2023-05-29T05:32:09;13.20;99.90
20740;DHT22;10530;49.968;19.844;2023-05-29T05:37:13;13.40;99.90
20740;DHT22;10530;49.968;19.844;2023-05-29T05:42:17;13.90;99.90
20740;DHT22;10530;49.968;19.844;2023-05-29T05:47:25;14.00;99.90
20740;DHT22;10530;49.968;19.844;2023-05-29T05:52:32;14.30;99.90
20740;DHT22;10530;49.968;19.844;2023-05-29T05:57:36;14.50;99.90
20740;DHT22;10530;49.968;19.844;2023-05-29T06:02:39;14.90;99.90
20740;DHT22;10530;49.968;19.844;2023-05-29T06:07:47;15.20;99.90
20740;DHT22;10530;49.968;19.844;2023-05-29T06:12:50;15.50;99.90
20740;DHT22;10530;49.968;19.844;2023-05-29T06:17:58;15.80;99.90
20740;DHT22;10530;49.968;19.844;2023-05-29T06:23:02;16.10;99.90
20740;DHT22;10530;49.968;19.844;2023-05-29T06:28:05;16.40;99.90
20740;DHT22;10530;49.968;19.844;2023-05-29T06:33:08;16.50;99.90
20740;DHT22;10530;49.968;19.844;2023-05-29T06:38:14;16.60;99.90
20740;DHT22;10530;49.968;19.844;2023-05-29T06:43:17;16.90;99.90
20740;DHT22;10530;49.968;19.844;2023-05-29T06:48:23;17.10;99.90
20740;DHT22;10530;49.968;19.844;2023-05-29T06:53:27;17.50;99.90
20740;DHT22;10530;49.968;19.844;2023-05-29T06:58:31;17.60;99.90
20740;DHT22;10530;49.968;19.844;2023-05-29T07:03:34;17.60;99.90
20740;DHT22;10530;49.968;19.844;2023-05-29T07:08:39;18.10;99.90
20740;DHT22;10530;49.968;19.844;2023-05-29T07:13:42;18.30;99.90
20740;DHT22;10530;49.968;19.844;2023-05-29T07:18:45;18.30;99.90
20740;DHT22;10530;49.968;19.844;2023-05-29T07:23:48;18.70;99.90
20740;DHT22;10530;49.968;19.844;2023-05-29T07:28:51;18.70;99.90
20740;DHT22;10530;49.968;19.844;2023-05-29T07:33:55;18.80;99.90
20740;DHT22;10530;49.968;19.844;2023-05-29T07:38:59;19.00;99.90
20740;DHT22;10530;49.968;19.844;2023-05-29T07:44:03;19.40;99.90
20740;DHT22;10530;49.968;19.844;2023-05-29T07:49:06;19.60;99.50
20740;DHT22;10530;49.968;19.844;2023-05-29T07:54:10;19.70;99.90
20740;DHT22;10530;49.968;19.844;2023-05-29T07:59:14;19.80;99.50
20740;DHT22;10530;49.968;19.844;2023-05-29T08:04:18;19.40;99.90
20740;DHT22;10530;49.968;19.844;2023-05-29T08:09:21;19.90;99.90
20740;DHT22;10530;49.968;19.844;2023-05-29T08:14:24;20.40;99.00
20740;DHT22;10530;49.968;19.844;2023-05-29T08:19:28;20.90;95.30
20740;DHT22;10530;49.968;19.844;2023-05-29T08:24:32;21.20;79.40
20740;DHT22;10530;49.968;19.844;2023-05-29T08:29:34;21.20;82.50
20740;DHT22;10530;49.968;19.844;2023-05-29T08:34:39;21.70;76.20
20740;DHT22;10530;49.968;19.844;2023-05-29T08:39:44;22.50;68.00
20740;DHT22;10530;49.968;19.844;2023-05-29T08:44:47;22.70;59.60
20740;DHT22;10530;49.968;19.844;2023-05-29T08:49:54;22.60;57.10
20740;DHT22;10530;49.968;19.844;2023-05-29T08:54:57;23.00;55.00
20740;DHT22;10530;49.968;19.844;2023-05-29T09:00:01;23.20;47.50
20740;DHT22;10530;49.968;19.844;2023-05-29T09:05:11;23.40;51.60
20740;DHT22;10530;49.968;19.844;2023-05-29T09:10:15;23.50;45.70
20740;DHT22;10530;49.968;19.844;2023-05-29T09:15:22;23.60;50.30
20740;DHT22;10530;49.968;19.844;2023-05-29T09:20:26;23.90;42.60
20740;DHT22;10530;49.968;19.844;2023-05-29T09:25:31;24.80;39.30
20740;DHT22;10530;49.968;19.844;2023-05-29T09:35:44;25.10;32.30
20740;DHT22;10530;49.968;19.844;2023-05-29T09:40:47;25.10;34.90
20740;DHT22;10530;49.968;19.844;2023-05-29T09:45:50;25.10;32.00
20740;DHT22;10530;49.968;19.844;2023-05-29T09:50:53;24.60;26.80
20740;DHT22;10530;49.968;19.844;2023-05-29T09:55:58;24.70;25.40
20740;DHT22;10530;49.968;19.844;2023-05-29T10:01:03;24.70;22.30
20740;DHT22;10530;49.968;19.844;2023-05-29T10:06:06;26.60;24.50
20740;DHT22;10530;49.968;19.844;2023-05-29T10:11:12;26.60;19.40
20740;DHT22;10530;49.968;19.844;2023-05-29T10:16:22;26.10;20.90
20740;DHT22;10530;49.968;19.844;2023-05-29T10:21:27;26.50;22.50
20740;DHT22;10530;49.968;19.844;2023-05-29T10:26:31;26.30;22.90
20740;DHT22;10530;49.968;19.844;2023-05-29T10:37:45;26.20;19.10
20740;DHT22;10530;49.968;19.844;2023-05-29T10:42:52;25.70;18.00
20740;DHT22;10530;49.968;19.844;2023-05-29T10:53:14;26.30;16.60
20740;DHT22;10530;49.968;19.844;2023-05-29T10:58:25;26.70;16.60
20740;DHT22;10530;49.968;19.844;2023-05-29T11:03:32;26.90;16.20
20740;DHT22;10530;49.968;19.844;2023-05-29T11:08:52;26.80;15.00
20740;DHT22;10530;49.968;19.844;2023-05-29T11:14:00;27.60;16.10
20740;DHT22;10530;49.968;19.844;2023-05-29T11:19:05;27.90;13.20
20740;DHT22;10530;49.968;19.844;2023-05-29T11:24:15;26.20;14.20
20740;DHT22;10530;49.968;19.844;2023-05-29T11:29:28;26.90;11.60
20740;DHT22;10530;49.968;19.844;2023-05-29T11:34:32;28.10;12.20
20740;DHT22;10530;49.968;19.844;2023-05-29T11:39:37;27.70;15.10
20740;DHT22;10530;49.968;19.844;2023-05-29T11:44:40;27.70;12.70
20740;DHT22;10530;49.968;19.844;2023-05-29T11:49:43;27.70;14.40
20740;DHT22;10530;49.968;19.844;2023-05-29T11:54:50;27.30;14.00
20740;DHT22;10530;49.968;19.844;2023-05-29T11:59:53;27.50;12.00
20740;DHT22;10530;49.968;19.844;2023-05-29T12:05:02;27.80;15.00
20740;DHT22;10530;49.968;19.844;2023-05-29T12:10:14;25.90;12.30
20740;DHT22;10530;49.968;19.844;2023-05-29T12:15:18;26.50;10.60
20740;DHT22;10530;49.968;19.844;2023-05-29T12:20:23;27.40;15.60
20740;DHT22;10530;49.968;19.844;2023-05-29T12:25:29;27.70;9.80
20740;DHT22;10530;49.968;19.844;2023-05-29T12:30:36;28.20;14.50
20740;DHT22;10530;49.968;19.844;2023-05-29T12:35:39;28.30;10.90
20740;DHT22;10530;49.968;19.844;2023-05-29T12:40:49;28.20;9.40
20740;DHT22;10530;49.968;19.844;2023-05-29T12:45:55;27.60;10.60
20740;DHT22;10530;49.968;19.844;2023-05-29T12:51:04;28.30;10.90
20740;DHT22;10530;49.968;19.844;2023-05-29T12:56:10;28.30;10.10
20740;DHT22;10530;49.968;19.844;2023-05-29T13:01:13;28.70;10.40
20740;DHT22;10530;49.968;19.844;2023-05-29T13:06:18;28.20;9.80
20740;DHT22;10530;49.968;19.844;2023-05-29T13:11:21;28.00;10.50
20740;DHT22;10530;49.968;19.844;2023-05-29T13:16:24;29.00;10.50
20740;DHT22;10530;49.968;19.844;2023-05-29T13:21:27;28.80;11.00
20740;DHT22;10530;49.968;19.844;2023-05-29T13:26:30;28.00;9.70
20740;DHT22;10530;49.968;19.844;2023-05-29T13:31:34;28.30;9.90
20740;DHT22;10530;49.968;19.844;2023-05-29T13:36:38;27.80;9.90
20740;DHT22;10530;49.968;19.844;2023-05-29T13:41:43;27.70;9.80
20740;DHT22;10530;49.968;19.844;2023-05-29T13:46:47;28.00;7.80
20740;DHT22;10530;49.968;19.844;2023-05-29T13:51:50;28.00;5.90
20740;DHT22;10530;49.968;19.844;2023-05-29T13:56:54;28.10;8.40
20740;DHT22;10530;49.968;19.844;2023-05-29T14:01:59;28.10;8.70
20740;DHT22;10530;49.968;19.844;2023-05-29T14:07:04;28.10;8.80
20740;DHT22;10530;49.968;19.844;2023-05-29T14:12:08;28.20;7.70
20740;DHT22;10530;49.968;19.844;2023-05-29T14:17:14;27.80;5.90
20740;DHT22;10530;49.968;19.844;2023-05-29T14:22:18;27.60;7.90
20740;DHT22;10530;49.968;19.844;2023-05-29T14:27:23;27.70;8.00
20740;DHT22;10530;49.968;19.844;2023-05-29T14:32:28;27.90;7.30
20740;DHT22;10530;49.968;19.844;2023-05-29T14:37:30;27.40;9.40
20740;DHT22;10530;49.968;19.844;2023-05-29T14:42:33;27.10;10.00
20740;DHT22;10530;49.968;19.844;2023-05-29T14:47:36;27.00;10.60
20740;DHT22;10530;49.968;19.844;2023-05-29T14:52:39;27.10;8.70
20740;DHT22;10530;49.968;19.844;2023-05-29T14:57:42;27.20;7.10
20740;DHT22;10530;49.968;19.844;2023-05-29T15:02:45;26.30;6.40
20740;DHT22;10530;49.968;19.844;2023-05-29T15:07:48;26.50;7.50
20740;DHT22;10530;49.968;19.844;2023-05-29T15:12:52;26.40;10.60
20740;DHT22;10530;49.968;19.844;2023-05-29T15:17:59;26.30;8.10
20740;DHT22;10530;49.968;19.844;2023-05-29T15:23:04;26.40;8.40
20740;DHT22;10530;49.968;19.844;2023-05-29T15:28:06;26.60;10.30
20740;DHT22;10530;49.968;19.844;2023-05-29T15:33:09;25.80;9.30
20740;DHT22;10530;49.968;19.844;2023-05-29T15:38:13;26.00;9.70
20740;DHT22;10530;49.968;19.844;2023-05-29T15:43:16;25.40;9.30
20740;DHT22;10530;49.968;19.844;2023-05-29T15:48:19;25.40;10.70
20740;DHT22;10530;49.968;19.844;2023-05-29T15:53:23;25.80;11.10
20740;DHT22;10530;49.968;19.844;2023-05-29T15:58:25;25.90;9.90
20740;DHT22;10530;49.968;19.844;2023-05-29T16:03:28;25.60;10.20
20740;DHT22;10530;49.968;19.844;2023-05-29T16:08:31;25.50;9.10
20740;DHT22;10530;49.968;19.844;2023-05-29T16:13:34;25.50;10.70
20740;DHT22;10530;49.968;19.844;2023-05-29T16:18:37;24.70;10.90
20740;DHT22;10530;49.968;19.844;2023-05-29T16:23:40;24.90;11.00
20740;DHT22;10530;49.968;19.844;2023-05-29T16:28:43;24.80;11.10
20740;DHT22;10530;49.968;19.844;2023-05-29T16:33:46;24.40;10.80
20740;DHT22;10530;49.968;19.844;2023-05-29T16:38:49;24.20;12.60
20740;DHT22;10530;49.968;19.844;2023-05-29T16:43:53;24.10;11.70
20740;DHT22;10530;49.968;19.844;2023-05-29T16:48:56;23.90;10.90
20740;DHT22;10530;49.968;19.844;2023-05-29T16:53:58;23.60;11.90
20740;DHT22;10530;49.968;19.844;2023-05-29T16:59:01;23.50;13.60
20740;DHT22;10530;49.968;19.844;2023-05-29T17:04:04;23.30;13.80
20740;DHT22;10530;49.968;19.844;2023-05-29T17:09:10;23.00;13.40
20740;DHT22;10530;49.968;19.844;2023-05-29T17:14:12;22.80;13.70
20740;DHT22;10530;49.968;19.844;2023-05-29T17:19:16;22.70;13.80
20740;DHT22;10530;49.968;19.844;2023-05-29T17:24:19;22.30;16.10
20740;DHT22;10530;49.968;19.844;2023-05-29T17:29:22;22.00;17.70
20740;DHT22;10530;49.968;19.844;2023-05-29T17:34:25;21.60;19.20
20740;DHT22;10530;49.968;19.844;2023-05-29T17:39:27;21.20;26.50
20740;DHT22;10530;49.968;19.844;2023-05-29T17:44:30;20.90;24.40
20740;DHT22;10530;49.968;19.844;2023-05-29T17:49:33;20.50;32.10
20740;DHT22;10530;49.968;19.844;2023-05-29T17:54:36;20.10;46.30
20740;DHT22;10530;49.968;19.844;2023-05-29T17:59:39;19.70;48.60
20740;DHT22;10530;49.968;19.844;2023-05-29T18:04:43;19.40;64.20
20740;DHT22;10530;49.968;19.844;2023-05-29T18:09:46;19.20;67.80
20740;DHT22;10530;49.968;19.844;2023-05-29T18:14:49;19.00;72.50
20740;DHT22;10530;49.968;19.844;2023-05-29T18:19:53;18.70;71.30
20740;DHT22;10530;49.968;19.844;2023-05-29T18:24:56;18.40;65.20
20740;DHT22;10530;49.968;19.844;2023-05-29T18:29:59;18.20;81.20
20740;DHT22;10530;49.968;19.844;2023-05-29T18:35:03;18.00;81.70
20740;DHT22;10530;49.968;19.844;2023-05-29T18:40:07;17.70;83.80
20740;DHT22;10530;49.968;19.844;2023-05-29T18:45:11;17.30;99.90
20740;DHT22;10530;49.968;19.844;2023-05-29T18:50:14;16.90;99.90
20740;DHT22;10530;49.968;19.844;2023-05-29T18:55:17;16.60;99.90
20740;DHT22;10530;49.968;19.844;2023-05-29T19:00:20;16.20;99.90
20740;DHT22;10530;49.968;19.844;2023-05-29T19:05:23;15.80;99.90
20740;DHT22;10530;49.968;19.844;2023-05-29T19:10:27;15.60;99.90
20740;DHT22;10530;49.968;19.844;2023-05-29T19:15:30;15.40;99.90
20740;DHT22;10530;49.968;19.844;2023-05-29T19:20:33;15.10;99.90
20740;DHT22;10530;49.968;19.844;2023-05-29T19:25:37;14.80;99.90
20740;DHT22;10530;49.968;19.844;2023-05-29T19:30:40;14.60;99.90
20740;DHT22;10530;49.968;19.844;2023-05-29T19:35:43;14.40;99.90
20740;DHT22;10530;49.968;19.844;2023-05-29T19:40:46;14.20;99.90
20740;DHT22;10530;49.968;19.844;2023-05-29T19:45:49;14.10;99.90
20740;DHT22;10530;49.968;19.844;2023-05-29T19:51:07;14.00;99.90
20740;DHT22;10530;49.968;19.844;2023-05-29T19:56:10;13.90;99.90
20740;DHT22;10530;49.968;19.844;2023-05-29T20:01:13;13.70;99.90
20740;DHT22;10530;49.968;19.844;2023-05-29T20:06:15;13.50;99.90
20740;DHT22;10530;49.968;19.844;2023-05-29T20:11:20;13.30;99.90
20740;DHT22;10530;49.968;19.844;2023-05-29T20:16:23;13.30;99.90
20740;DHT22;10530;49.968;19.844;2023-05-29T20:21:26;13.10;99.90
20740;DHT22;10530;49.968;19.844;2023-05-29T20:26:30;13.00;99.90
20740;DHT22;10530;49.968;19.844;2023-05-29T20:31:34;12.80;99.90
20740;DHT22;10530;49.968;19.844;2023-05-29T20:36:37;12.70;99.90
20740;DHT22;10530;49.968;19.844;2023-05-29T20:41:41;12.50;99.90
20740;DHT22;10530;49.968;19.844;2023-05-29T20:46:45;12.30;99.90
20740;DHT22;10530;49.968;19.844;2023-05-29T20:51:49;12.30;99.90
20740;DHT22;10530;49.968;19.844;2023-05-29T20:56:52;12.40;99.90
20740;DHT22;10530;49.968;19.844;2023-05-29T21:01:55;12.40;99.90
20740;DHT22;10530;49.968;19.844;2023-05-29T21:06:58;12.30;99.90
20740;DHT22;10530;49.968;19.844;2023-05-29T21:12:01;12.20;99.90
20740;DHT22;10530;49.968;19.844;2023-05-29T21:17:04;11.80;99.90
20740;DHT22;10530;49.968;19.844;2023-05-29T21:22:07;11.70;99.90
20740;DHT22;10530;49.968;19.844;2023-05-29T21:27:10;11.50;99.90
20740;DHT22;10530;49.968;19.844;2023-05-29T21:32:15;11.30;99.90
20740;DHT22;10530;49.968;19.844;2023-05-29T21:37:21;11.10;99.90
20740;DHT22;10530;49.968;19.844;2023-05-29T21:42:25;11.10;99.90
20740;DHT22;10530;49.968;19.844;2023-05-29T21:47:28;11.10;99.90
20740;DHT22;10530;49.968;19.844;2023-05-29T21:52:31;11.10;99.90
20740;DHT22;10530;49.968;19.844;2023-05-29T21:57:34;11.10;99.90
20740;DHT22;10530;49.968;19.844;2023-05-29T22:02:37;11.00;99.90
20740;DHT22;10530;49.968;19.844;2023-05-29T22:07:40;11.00;99.90
20740;DHT22;10530;49.968;19.844;2023-05-29T22:12:43;11.00;99.90
20740;DHT22;10530;49.968;19.844;2023-05-29T22:17:46;10.90;99.90
20740;DHT22;10530;49.968;19.844;2023-05-29T22:22:50;10.70;99.90
20740;DHT22;10530;49.968;19.844;2023-05-29T22:28:00;10.60;99.90
20740;DHT22;10530;49.968;19.844;2023-05-29T22:33:03;10.50;99.90
20740;DHT22;10530;49.968;19.844;2023-05-29T22:38:05;10.50;99.90
20740;DHT22;10530;49.968;19.844;2023-05-29T22:43:09;10.50;99.90
20740;DHT22;10530;49.968;19.844;2023-05-29T22:48:12;10.50;99.90
20740;DHT22;10530;49.968;19.844;2023-05-29T22:53:19;10.40;99.90
20740;DHT22;10530;49.968;19.844;2023-05-29T22:58:22;10.40;99.90
20740;DHT22;10530;49.968;19.844;2023-05-29T23:03:25;10.40;99.90
20740;DHT22;10530;49.968;19.844;2023-05-29T23:08:29;10.10;99.90
20740;DHT22;10530;49.968;19.844;2023-05-29T23:13:32;10.10;99.90
20740;DHT22;10530;49.968;19.844;2023-05-29T23:18:34;10.00;99.90
20740;DHT22;10530;49.968;19.844;2023-05-29T23:23:37;10.00;99.90
20740;DHT22;10530;49.968;19.844;2023-05-29T23:28:40;9.90;99.90
20740;DHT22;10530;49.968;19.844;2023-05-29T23:33:43;9.80;99.90
20740;DHT22;10530;49.968;19.844;2023-05-29T23:38:46;9.70;99.90
20740;DHT22;10530;49.968;19.844;2023-05-29T23:43:49;9.60;99.90
20740;DHT22;10530;49.968;19.844;2023-05-29T23:48:53;9.60;99.90
20740;DHT22;10530;49.968;19.844;2023-05-29T23:53:59;9.60;99.90
20740;DHT22;10530;49.968;19.844;2023-05-29T23:59:02;9.60;99.90
